American Star — WDD7311 — position and weather

sailwx.info

Track history (hours):
 
Tides and Currents Weather Stations Pressure Air Temp Water Temp Dewpoint Dewpoint Depression Visibility Wind Speed Wind Dir Waves Ship Positions

American Star

Owner: American Cruise Lines, Inc, Guilford, CT. More information available from US FCC via Universal Licensing System and Coast Guard Vessel Documentation Center.

Last reported at 2018-Jun-18 09:07 UTC. Time now 2018-Jun-22 00:02 UTC.
Position N 41°38' W 070°55'.

Length 60 m; draft 2.1 m.

Type: Ship (hazmat cat C). MMSI: 367184740.

Date/timePositionNaut miles runAvg speedWind from/ knotsBaromVisibWave heightAir tempDewpointWater temp
2018-Jun-18 09:07N 41°38' W 070°55'0 0.0
2018-Jun-18 06:04N 41°38' W 070°55'0 0.0
2018-Jun-18 05:37N 41°38' W 070°55'0 0.0
2018-Jun-18 05:22N 41°38' W 070°55'0 0.0
2018-Jun-18 04:58N 41°38' W 070°55'0 0.0
2018-Jun-18 04:25N 41°38' W 070°55'0 0.0
2018-Jun-18 03:58N 41°38' W 070°55'0 0.0
2018-Jun-18 03:28N 41°38' W 070°55'0 0.0
2018-Jun-18 02:52N 41°38' W 070°55'0 0.0
2018-Jun-18 02:28N 41°38' W 070°55'16 0.5
2018-Jun-16 18:19N 41°38' W 071°16'3 8.5
2018-Jun-16 18:00N 41°40' W 071°19'5 9.9
2018-Jun-16 17:31N 41°44' W 071°22'4 0.2
2018-Jun-15 22:23N 41°48' W 071°23'511.2
2018-Jun-15 21:59N 41°43' W 071°21'5 0.7
2018-Jun-15 14:49N 41°39' W 071°17'2 7.3
2018-Jun-15 14:29N 41°37' W 071°17'  
2018-Jun-13 05:10N 41°27' W 070°36'0 0.0
2018-Jun-13 03:49N 41°27' W 070°36'0 0.0
2018-Jun-12 03:26N 41°27' W 070°36'0 0.0
2018-Jun-12 02:59N 41°27' W 070°36'22 1.4
2018-Jun-11 11:22N 41°21' W 070°08'3 8.5
2018-Jun-11 11:00N 41°24' W 070°10'1711.1
2018-Jun-11 09:26N 41°29' W 070°33'612.8
2018-Jun-11 09:00N 41°29' W 070°40'811.8
2018-Jun-11 08:20N 41°26' W 070°50'13 9.8
2018-Jun-11 07:03N 41°38' W 070°55'18 0.5
2018-Jun-09 17:46N 41°39' W 071°19'3 9.5
2018-Jun-09 17:29N 41°41' W 071°19'5 9.9
2018-Jun-09 17:00N 41°45' W 071°23'3 0.2
2018-Jun-08 22:18N 41°48' W 071°24'310.0
2018-Jun-08 22:00N 41°46' W 071°23'510.6
2018-Jun-08 21:30N 41°41' W 071°19'2 0.7
2018-Jun-08 17:47N 41°39' W 071°16'  
Track history (hours):
 
Tides and Currents Weather Stations Pressure Air Temp Water Temp Dewpoint Dewpoint Depression Visibility Wind Speed Wind Dir Waves Ship Positions

American Star

Owner: American Cruise Lines, Inc, Guilford, CT. More information available from US FCC via Universal Licensing System and Coast Guard Vessel Documentation Center.

Last reported at 2018-Jun-18 09:07 UTC. Time now 2018-Jun-22 00:02 UTC.
Position N 41°38' W 070°55'.

Length 60 m; draft 2.1 m.

Type: Ship (hazmat cat C). MMSI: 367184740.

Date/timePositionNaut miles runAvg speedWind from/ knotsBaromVisibWave heightAir tempDewpointWater temp
2018-Jun-18 09:07N 41°38' W 070°55'0 0.0
2018-Jun-18 06:04N 41°38' W 070°55'0 0.0
2018-Jun-18 05:37N 41°38' W 070°55'0 0.0
2018-Jun-18 05:22N 41°38' W 070°55'0 0.0
2018-Jun-18 04:58N 41°38' W 070°55'0 0.0
2018-Jun-18 04:25N 41°38' W 070°55'0 0.0
2018-Jun-18 03:58N 41°38' W 070°55'0 0.0
2018-Jun-18 03:28N 41°38' W 070°55'0 0.0
2018-Jun-18 02:52N 41°38' W 070°55'0 0.0
2018-Jun-18 02:28N 41°38' W 070°55'16 0.5
2018-Jun-16 18:19N 41°38' W 071°16'3 8.5
2018-Jun-16 18:00N 41°40' W 071°19'5 9.9
2018-Jun-16 17:31N 41°44' W 071°22'4 0.2
2018-Jun-15 22:23N 41°48' W 071°23'511.2
2018-Jun-15 21:59N 41°43' W 071°21'5 0.7
2018-Jun-15 14:49N 41°39' W 071°17'2 7.3
2018-Jun-15 14:29N 41°37' W 071°17'  
2018-Jun-13 05:10N 41°27' W 070°36'0 0.0
2018-Jun-13 03:49N 41°27' W 070°36'0 0.0
2018-Jun-12 03:26N 41°27' W 070°36'0 0.0
2018-Jun-12 02:59N 41°27' W 070°36'22 1.4
2018-Jun-11 11:22N 41°21' W 070°08'3 8.5
2018-Jun-11 11:00N 41°24' W 070°10'1711.1
2018-Jun-11 09:26N 41°29' W 070°33'612.8
2018-Jun-11 09:00N 41°29' W 070°40'811.8
2018-Jun-11 08:20N 41°26' W 070°50'13 9.8
2018-Jun-11 07:03N 41°38' W 070°55'18 0.5
2018-Jun-09 17:46N 41°39' W 071°19'3 9.5
2018-Jun-09 17:29N 41°41' W 071°19'5 9.9
2018-Jun-09 17:00N 41°45' W 071°23'3 0.2
2018-Jun-08 22:18N 41°48' W 071°24'310.0
2018-Jun-08 22:00N 41°46' W 071°23'510.6
2018-Jun-08 21:30N 41°41' W 071°19'2 0.7
2018-Jun-08 17:47N 41°39' W 071°16'  

Dump ship's entire track history